Página principal
METAR-TAF:

METAR-TAF

Aeroportos :

False Pass, Alasca, Estados Unidos

latitude: 54-50-51N, longitude: 163-24-37W, altura: 6 m

Observação actual do tempo

O boletim foi feito há 30 minutos, às 16:03 UTC
Vento calmo
Temperatura 7°C
Humidade 93%
Pressão 1010 hPa
Visibilidade: 4.8 km
Encobertoa uma altura de 600 ft
chuva fraca, neblina

METAR: PAKF 191603Z AUTO 00000KT 3SM -RA BR OVC006 07/06 A2983 RMK AO2 P0000

Hora: 08:33 (16:33 UTC)


TAF: em falta

Observações e previsões do tempo de mais de 4000 aeroportos (mensagens METAR e TAF).

As estações disponíveis são os pontos amarelos e vermelhos sobre o mapa.

Mova o rato sobre o mapa para ver o nome da estação.

Depois clique no ponto para visualizar as observações e previsões meteorológicas.

Para alterar o mapa : clique nos botões verdes com uma cruz preta para aumentar o zoom; no botão verde com uma pitada de zoom; ou nas setas verdes para mapas adjacentes.


METAR-TAF: